sensor_id;sensor_type;location;lat;lon;timestamp;P1;durP1;ratioP1;P2;durP2;ratioP2
52124;SDS011;38119;52.710;6.398;2023-07-29T00:02:05;12.57;;;9.40;;
52124;SDS011;38119;52.710;6.398;2023-07-29T00:04:31;12.57;;;9.40;;
52124;SDS011;38119;52.710;6.398;2023-07-29T00:06:57;11.52;;;9.18;;
52124;SDS011;38119;52.710;6.398;2023-07-29T00:09:22;13.75;;;10.00;;
52124;SDS011;38119;52.710;6.398;2023-07-29T00:11:48;12.15;;;9.65;;
52124;SDS011;38119;52.710;6.398;2023-07-29T00:14:14;12.20;;;9.73;;
52124;SDS011;38119;52.710;6.398;2023-07-29T00:16:39;12.88;;;9.70;;
52124;SDS011;38119;52.710;6.398;2023-07-29T00:19:05;17.27;;;10.07;;
52124;SDS011;38119;52.710;6.398;2023-07-29T00:21:31;11.10;;;9.15;;
52124;SDS011;38119;52.710;6.398;2023-07-29T00:23:56;12.05;;;9.50;;
52124;SDS011;38119;52.710;6.398;2023-07-29T00:26:22;13.00;;;9.38;;
52124;SDS011;38119;52.710;6.398;2023-07-29T00:28:51;12.98;;;9.32;;
52124;SDS011;38119;52.710;6.398;2023-07-29T00:31:16;13.20;;;9.35;;
52124;SDS011;38119;52.710;6.398;2023-07-29T00:33:42;11.80;;;9.88;;
52124;SDS011;38119;52.710;6.398;2023-07-29T00:36:08;12.93;;;9.25;;
52124;SDS011;38119;52.710;6.398;2023-07-29T00:38:34;11.38;;;9.00;;
52124;SDS011;38119;52.710;6.398;2023-07-29T00:41:00;11.90;;;9.75;;
52124;SDS011;38119;52.710;6.398;2023-07-29T00:43:28;14.82;;;9.20;;
52124;SDS011;38119;52.710;6.398;2023-07-29T00:45:54;11.30;;;9.15;;
52124;SDS011;38119;52.710;6.398;2023-07-29T00:48:22;11.13;;;9.07;;
52124;SDS011;38119;52.710;6.398;2023-07-29T00:50:48;13.00;;;8.98;;
52124;SDS011;38119;52.710;6.398;2023-07-29T00:53:15;14.77;;;8.75;;
52124;SDS011;38119;52.710;6.398;2023-07-29T00:55:41;12.45;;;9.40;;
52124;SDS011;38119;52.710;6.398;2023-07-29T00:58:07;15.20;;;9.85;;
52124;SDS011;38119;52.710;6.398;2023-07-29T01:00:32;12.82;;;8.60;;
52124;SDS011;38119;52.710;6.398;2023-07-29T01:02:58;10.88;;;9.15;;
52124;SDS011;38119;52.710;6.398;2023-07-29T01:05:24;10.55;;;8.82;;
52124;SDS011;38119;52.710;6.398;2023-07-29T01:07:57;11.68;;;9.30;;
52124;SDS011;38119;52.710;6.398;2023-07-29T01:13:22;13.07;;;8.80;;
52124;SDS011;38119;52.710;6.398;2023-07-29T01:16:04;13.02;;;8.63;;
52124;SDS011;38119;52.710;6.398;2023-07-29T01:18:36;13.88;;;9.18;;
52124;SDS011;38119;52.710;6.398;2023-07-29T01:21:04;12.40;;;9.05;;
52124;SDS011;38119;52.710;6.398;2023-07-29T01:23:33;12.95;;;9.00;;
52124;SDS011;38119;52.710;6.398;2023-07-29T01:25:59;10.88;;;8.13;;
52124;SDS011;38119;52.710;6.398;2023-07-29T01:28:26;11.85;;;8.68;;
52124;SDS011;38119;52.710;6.398;2023-07-29T01:30:56;10.82;;;8.93;;
52124;SDS011;38119;52.710;6.398;2023-07-29T01:33:33;13.85;;;8.77;;
52124;SDS011;38119;52.710;6.398;2023-07-29T01:36:11;12.30;;;8.57;;
52124;SDS011;38119;52.710;6.398;2023-07-29T01:38:42;13.07;;;8.07;;
52124;SDS011;38119;52.710;6.398;2023-07-29T01:41:09;12.40;;;8.07;;
52124;SDS011;38119;52.710;6.398;2023-07-29T01:43:36;11.27;;;8.20;;
52124;SDS011;38119;52.710;6.398;2023-07-29T01:46:08;10.43;;;8.63;;
52124;SDS011;38119;52.710;6.398;2023-07-29T01:48:38;10.18;;;7.85;;
52124;SDS011;38119;52.710;6.398;2023-07-29T01:51:04;12.02;;;8.13;;
52124;SDS011;38119;52.710;6.398;2023-07-29T01:53:30;15.32;;;8.70;;
52124;SDS011;38119;52.710;6.398;2023-07-29T01:55:56;14.65;;;8.02;;
52124;SDS011;38119;52.710;6.398;2023-07-29T01:58:22;10.23;;;8.13;;
52124;SDS011;38119;52.710;6.398;2023-07-29T02:00:48;10.80;;;7.60;;
52124;SDS011;38119;52.710;6.398;2023-07-29T02:03:13;10.75;;;7.80;;
52124;SDS011;38119;52.710;6.398;2023-07-29T02:05:39;12.10;;;8.70;;
52124;SDS011;38119;52.710;6.398;2023-07-29T02:08:05;12.35;;;8.02;;
52124;SDS011;38119;52.710;6.398;2023-07-29T02:10:31;10.75;;;8.63;;
52124;SDS011;38119;52.710;6.398;2023-07-29T02:12:56;10.20;;;7.88;;
52124;SDS011;38119;52.710;6.398;2023-07-29T02:15:22;12.18;;;7.35;;
52124;SDS011;38119;52.710;6.398;2023-07-29T02:17:49;10.77;;;8.23;;
52124;SDS011;38119;52.710;6.398;2023-07-29T02:20:15;9.75;;;7.22;;
52124;SDS011;38119;52.710;6.398;2023-07-29T02:22:41;8.65;;;7.18;;
52124;SDS011;38119;52.710;6.398;2023-07-29T02:25:07;12.32;;;7.70;;
52124;SDS011;38119;52.710;6.398;2023-07-29T02:27:33;9.05;;;7.30;;
52124;SDS011;38119;52.710;6.398;2023-07-29T02:29:58;11.68;;;7.13;;
52124;SDS011;38119;52.710;6.398;2023-07-29T02:32:24;10.38;;;7.85;;
52124;SDS011;38119;52.710;6.398;2023-07-29T02:34:50;9.15;;;7.45;;
52124;SDS011;38119;52.710;6.398;2023-07-29T02:37:15;10.05;;;7.25;;
52124;SDS011;38119;52.710;6.398;2023-07-29T02:39:41;9.27;;;6.88;;
52124;SDS011;38119;52.710;6.398;2023-07-29T02:42:07;9.70;;;6.85;;
52124;SDS011;38119;52.710;6.398;2023-07-29T02:44:33;10.23;;;6.78;;
52124;SDS011;38119;52.710;6.398;2023-07-29T02:46:58;11.88;;;7.22;;
52124;SDS011;38119;52.710;6.398;2023-07-29T02:49:24;9.27;;;6.68;;
52124;SDS011;38119;52.710;6.398;2023-07-29T02:51:50;10.55;;;7.00;;
52124;SDS011;38119;52.710;6.398;2023-07-29T02:54:15;10.32;;;6.93;;
52124;SDS011;38119;52.710;6.398;2023-07-29T02:56:41;9.57;;;6.32;;
52124;SDS011;38119;52.710;6.398;2023-07-29T02:59:06;10.27;;;5.97;;
52124;SDS011;38119;52.710;6.398;2023-07-29T03:01:32;10.15;;;5.90;;
52124;SDS011;38119;52.710;6.398;2023-07-29T03:03:58;10.48;;;6.03;;
52124;SDS011;38119;52.710;6.398;2023-07-29T03:06:24;8.10;;;5.70;;
52124;SDS011;38119;52.710;6.398;2023-07-29T03:08:49;7.43;;;5.53;;
52124;SDS011;38119;52.710;6.398;2023-07-29T03:11:15;10.57;;;6.38;;
52124;SDS011;38119;52.710;6.398;2023-07-29T03:13:42;10.07;;;5.75;;
52124;SDS011;38119;52.710;6.398;2023-07-29T03:16:08;8.65;;;5.40;;
52124;SDS011;38119;52.710;6.398;2023-07-29T03:18:39;8.85;;;5.25;;
52124;SDS011;38119;52.710;6.398;2023-07-29T03:21:09;8.40;;;5.43;;
52124;SDS011;38119;52.710;6.398;2023-07-29T03:23:35;7.20;;;5.07;;
52124;SDS011;38119;52.710;6.398;2023-07-29T03:26:02;6.45;;;5.10;;
52124;SDS011;38119;52.710;6.398;2023-07-29T03:28:34;7.68;;;5.05;;
52124;SDS011;38119;52.710;6.398;2023-07-29T03:31:02;7.57;;;5.53;;
52124;SDS011;38119;52.710;6.398;2023-07-29T03:33:28;7.25;;;5.20;;
52124;SDS011;38119;52.710;6.398;2023-07-29T03:35:54;7.97;;;5.03;;
52124;SDS011;38119;52.710;6.398;2023-07-29T03:38:20;7.72;;;4.78;;
52124;SDS011;38119;52.710;6.398;2023-07-29T03:40:45;8.43;;;4.72;;
52124;SDS011;38119;52.710;6.398;2023-07-29T03:43:11;7.47;;;4.47;;
52124;SDS011;38119;52.710;6.398;2023-07-29T03:45:37;7.78;;;4.40;;
52124;SDS011;38119;52.710;6.398;2023-07-29T03:48:04;6.80;;;4.80;;
52124;SDS011;38119;52.710;6.398;2023-07-29T03:50:30;8.50;;;4.43;;
52124;SDS011;38119;52.710;6.398;2023-07-29T03:52:56;5.50;;;4.00;;
52124;SDS011;38119;52.710;6.398;2023-07-29T03:55:21;6.10;;;3.95;;
52124;SDS011;38119;52.710;6.398;2023-07-29T03:57:47;9.77;;;4.53;;
52124;SDS011;38119;52.710;6.398;2023-07-29T04:00:13;7.00;;;4.25;;
52124;SDS011;38119;52.710;6.398;2023-07-29T04:02:39;8.70;;;4.57;;
52124;SDS011;38119;52.710;6.398;2023-07-29T04:05:06;5.78;;;3.80;;
52124;SDS011;38119;52.710;6.398;2023-07-29T04:07:33;6.70;;;3.90;;
52124;SDS011;38119;52.710;6.398;2023-07-29T04:10:02;8.00;;;4.20;;
52124;SDS011;38119;52.710;6.398;2023-07-29T04:12:29;8.23;;;4.00;;
52124;SDS011;38119;52.710;6.398;2023-07-29T04:14:55;6.07;;;3.72;;
52124;SDS011;38119;52.710;6.398;2023-07-29T04:17:21;5.90;;;3.92;;
52124;SDS011;38119;52.710;6.398;2023-07-29T04:19:46;7.18;;;3.40;;
52124;SDS011;38119;52.710;6.398;2023-07-29T04:22:12;5.93;;;3.50;;
52124;SDS011;38119;52.710;6.398;2023-07-29T04:24:37;6.05;;;4.20;;
52124;SDS011;38119;52.710;6.398;2023-07-29T04:27:03;6.63;;;3.42;;
52124;SDS011;38119;52.710;6.398;2023-07-29T04:29:29;5.20;;;3.40;;
52124;SDS011;38119;52.710;6.398;2023-07-29T04:31:55;6.80;;;3.92;;
52124;SDS011;38119;52.710;6.398;2023-07-29T04:34:20;6.72;;;3.97;;
52124;SDS011;38119;52.710;6.398;2023-07-29T04:36:46;5.78;;;4.05;;
52124;SDS011;38119;52.710;6.398;2023-07-29T04:39:12;6.47;;;3.60;;
52124;SDS011;38119;52.710;6.398;2023-07-29T04:41:38;5.65;;;4.00;;
52124;SDS011;38119;52.710;6.398;2023-07-29T04:44:04;5.35;;;3.70;;
52124;SDS011;38119;52.710;6.398;2023-07-29T04:46:30;6.63;;;4.13;;
52124;SDS011;38119;52.710;6.398;2023-07-29T04:48:56;6.32;;;4.13;;
52124;SDS011;38119;52.710;6.398;2023-07-29T04:51:21;6.47;;;3.80;;
52124;SDS011;38119;52.710;6.398;2023-07-29T04:53:48;5.28;;;3.67;;
52124;SDS011;38119;52.710;6.398;2023-07-29T04:56:13;5.00;;;3.75;;
52124;SDS011;38119;52.710;6.398;2023-07-29T04:58:39;5.68;;;3.85;;
52124;SDS011;38119;52.710;6.398;2023-07-29T05:01:05;6.25;;;3.85;;
52124;SDS011;38119;52.710;6.398;2023-07-29T05:03:31;6.05;;;3.90;;
52124;SDS011;38119;52.710;6.398;2023-07-29T05:05:57;7.32;;;4.00;;
52124;SDS011;38119;52.710;6.398;2023-07-29T05:08:24;8.90;;;4.43;;
52124;SDS011;38119;52.710;6.398;2023-07-29T05:10:53;9.98;;;4.22;;
52124;SDS011;38119;52.710;6.398;2023-07-29T05:13:19;7.72;;;4.50;;
52124;SDS011;38119;52.710;6.398;2023-07-29T05:15:47;7.90;;;4.97;;
52124;SDS011;38119;52.710;6.398;2023-07-29T05:18:13;6.50;;;4.15;;
52124;SDS011;38119;52.710;6.398;2023-07-29T05:20:38;9.65;;;5.15;;
52124;SDS011;38119;52.710;6.398;2023-07-29T05:23:04;8.38;;;5.00;;
52124;SDS011;38119;52.710;6.398;2023-07-29T05:25:30;7.50;;;4.82;;
52124;SDS011;38119;52.710;6.398;2023-07-29T05:27:55;10.57;;;5.45;;
52124;SDS011;38119;52.710;6.398;2023-07-29T05:30:22;9.90;;;5.60;;
52124;SDS011;38119;52.710;6.398;2023-07-29T05:32:48;8.95;;;4.97;;
52124;SDS011;38119;52.710;6.398;2023-07-29T05:35:13;9.05;;;5.13;;
52124;SDS011;38119;52.710;6.398;2023-07-29T05:37:40;8.02;;;5.18;;
52124;SDS011;38119;52.710;6.398;2023-07-29T05:40:06;9.57;;;4.95;;
52124;SDS011;38119;52.710;6.398;2023-07-29T05:42:33;10.40;;;5.68;;
52124;SDS011;38119;52.710;6.398;2023-07-29T05:44:59;7.95;;;5.13;;
52124;SDS011;38119;52.710;6.398;2023-07-29T05:47:25;11.32;;;5.57;;
52124;SDS011;38119;52.710;6.398;2023-07-29T05:49:51;9.70;;;5.38;;
52124;SDS011;38119;52.710;6.398;2023-07-29T05:52:17;10.07;;;5.82;;
52124;SDS011;38119;52.710;6.398;2023-07-29T05:54:42;13.13;;;5.65;;
52124;SDS011;38119;52.710;6.398;2023-07-29T05:57:11;10.80;;;5.55;;
52124;SDS011;38119;52.710;6.398;2023-07-29T05:59:37;10.82;;;6.20;;
52124;SDS011;38119;52.710;6.398;2023-07-29T06:02:03;11.07;;;5.93;;
52124;SDS011;38119;52.710;6.398;2023-07-29T06:04:29;10.15;;;6.03;;
52124;SDS011;38119;52.710;6.398;2023-07-29T06:06:55;9.02;;;6.20;;
52124;SDS011;38119;52.710;6.398;2023-07-29T06:09:24;9.95;;;5.95;;
52124;SDS011;38119;52.710;6.398;2023-07-29T06:11:50;11.55;;;6.22;;
52124;SDS011;38119;52.710;6.398;2023-07-29T06:14:16;12.32;;;5.72;;
52124;SDS011;38119;52.710;6.398;2023-07-29T06:16:42;12.05;;;6.15;;
52124;SDS011;38119;52.710;6.398;2023-07-29T06:19:07;11.52;;;5.78;;
52124;SDS011;38119;52.710;6.398;2023-07-29T06:21:34;10.93;;;5.38;;
52124;SDS011;38119;52.710;6.398;2023-07-29T06:24:00;10.45;;;5.63;;
52124;SDS011;38119;52.710;6.398;2023-07-29T06:26:26;11.40;;;5.72;;
52124;SDS011;38119;52.710;6.398;2023-07-29T06:28:53;14.77;;;6.32;;
52124;SDS011;38119;52.710;6.398;2023-07-29T06:31:19;13.38;;;5.95;;
52124;SDS011;38119;52.710;6.398;2023-07-29T06:33:44;12.00;;;5.70;;
52124;SDS011;38119;52.710;6.398;2023-07-29T06:36:11;7.97;;;4.82;;
52124;SDS011;38119;52.710;6.398;2023-07-29T06:38:37;11.88;;;5.50;;
52124;SDS011;38119;52.710;6.398;2023-07-29T06:41:03;10.52;;;5.68;;
52124;SDS011;38119;52.710;6.398;2023-07-29T06:43:29;10.07;;;4.65;;
52124;SDS011;38119;52.710;6.398;2023-07-29T06:45:55;12.32;;;5.63;;
52124;SDS011;38119;52.710;6.398;2023-07-29T06:48:21;10.77;;;5.70;;
52124;SDS011;38119;52.710;6.398;2023-07-29T06:50:47;13.68;;;5.60;;
52124;SDS011;38119;52.710;6.398;2023-07-29T06:53:12;13.68;;;5.20;;
52124;SDS011;38119;52.710;6.398;2023-07-29T06:55:38;10.38;;;5.13;;
52124;SDS011;38119;52.710;6.398;2023-07-29T06:58:04;8.52;;;4.95;;
52124;SDS011;38119;52.710;6.398;2023-07-29T07:00:30;8.70;;;4.97;;
52124;SDS011;38119;52.710;6.398;2023-07-29T07:02:55;10.10;;;5.40;;
52124;SDS011;38119;52.710;6.398;2023-07-29T07:05:21;9.15;;;4.82;;
52124;SDS011;38119;52.710;6.398;2023-07-29T07:07:46;9.90;;;5.22;;
52124;SDS011;38119;52.710;6.398;2023-07-29T07:10:13;9.75;;;5.05;;
52124;SDS011;38119;52.710;6.398;2023-07-29T07:12:39;8.98;;;4.93;;
52124;SDS011;38119;52.710;6.398;2023-07-29T07:15:04;9.90;;;4.70;;
52124;SDS011;38119;52.710;6.398;2023-07-29T07:17:31;10.00;;;4.95;;
52124;SDS011;38119;52.710;6.398;2023-07-29T07:19:56;8.95;;;4.88;;
52124;SDS011;38119;52.710;6.398;2023-07-29T07:22:22;8.63;;;4.55;;
52124;SDS011;38119;52.710;6.398;2023-07-29T07:24:48;9.38;;;4.60;;
52124;SDS011;38119;52.710;6.398;2023-07-29T07:27:14;8.52;;;4.93;;
52124;SDS011;38119;52.710;6.398;2023-07-29T07:29:40;10.35;;;5.15;;
52124;SDS011;38119;52.710;6.398;2023-07-29T07:32:05;10.07;;;5.10;;
52124;SDS011;38119;52.710;6.398;2023-07-29T07:34:31;9.95;;;5.32;;
52124;SDS011;38119;52.710;6.398;2023-07-29T07:36:58;12.13;;;4.97;;
52124;SDS011;38119;52.710;6.398;2023-07-29T07:39:24;8.05;;;5.00;;
52124;SDS011;38119;52.710;6.398;2023-07-29T07:41:49;10.95;;;5.18;;
52124;SDS011;38119;52.710;6.398;2023-07-29T07:44:15;9.68;;;5.00;;
52124;SDS011;38119;52.710;6.398;2023-07-29T07:46:43;9.25;;;5.10;;
52124;SDS011;38119;52.710;6.398;2023-07-29T07:49:08;8.43;;;4.70;;
52124;SDS011;38119;52.710;6.398;2023-07-29T07:51:34;8.25;;;4.85;;
52124;SDS011;38119;52.710;6.398;2023-07-29T07:54:00;10.73;;;4.80;;
52124;SDS011;38119;52.710;6.398;2023-07-29T07:56:25;9.65;;;4.70;;
52124;SDS011;38119;52.710;6.398;2023-07-29T07:58:51;9.15;;;4.90;;
52124;SDS011;38119;52.710;6.398;2023-07-29T08:01:17;7.38;;;4.70;;
52124;SDS011;38119;52.710;6.398;2023-07-29T08:03:42;7.47;;;4.72;;
52124;SDS011;38119;52.710;6.398;2023-07-29T08:06:08;7.93;;;4.88;;
52124;SDS011;38119;52.710;6.398;2023-07-29T08:08:34;8.77;;;4.25;;
52124;SDS011;38119;52.710;6.398;2023-07-29T08:10:59;11.13;;;4.90;;
52124;SDS011;38119;52.710;6.398;2023-07-29T08:13:25;8.20;;;4.57;;
52124;SDS011;38119;52.710;6.398;2023-07-29T08:15:51;7.15;;;4.53;;
52124;SDS011;38119;52.710;6.398;2023-07-29T08:18:18;9.77;;;4.65;;
52124;SDS011;38119;52.710;6.398;2023-07-29T08:20:53;7.22;;;4.00;;
52124;SDS011;38119;52.710;6.398;2023-07-29T08:23:37;8.57;;;4.40;;
52124;SDS011;38119;52.710;6.398;2023-07-29T08:26:04;7.93;;;3.92;;
52124;SDS011;38119;52.710;6.398;2023-07-29T08:28:37;6.80;;;3.88;;
52124;SDS011;38119;52.710;6.398;2023-07-29T08:31:04;7.93;;;3.90;;
52124;SDS011;38119;52.710;6.398;2023-07-29T08:33:30;9.07;;;3.90;;
52124;SDS011;38119;52.710;6.398;2023-07-29T08:35:58;7.78;;;3.60;;
52124;SDS011;38119;52.710;6.398;2023-07-29T08:38:24;8.00;;;3.55;;
52124;SDS011;38119;52.710;6.398;2023-07-29T08:43:44;7.55;;;3.50;;
52124;SDS011;38119;52.710;6.398;2023-07-29T08:46:15;6.53;;;2.88;;
52124;SDS011;38119;52.710;6.398;2023-07-29T08:48:42;5.15;;;3.05;;
52124;SDS011;38119;52.710;6.398;2023-07-29T08:51:09;7.22;;;3.10;;
52124;SDS011;38119;52.710;6.398;2023-07-29T08:53:36;4.78;;;2.70;;
52124;SDS011;38119;52.710;6.398;2023-07-29T08:56:02;5.55;;;2.63;;
52124;SDS011;38119;52.710;6.398;2023-07-29T08:58:28;6.78;;;2.90;;
52124;SDS011;38119;52.710;6.398;2023-07-29T09:00:54;10.40;;;2.85;;
52124;SDS011;38119;52.710;6.398;2023-07-29T09:03:20;5.68;;;2.50;;
52124;SDS011;38119;52.710;6.398;2023-07-29T09:05:46;4.53;;;2.65;;
52124;SDS011;38119;52.710;6.398;2023-07-29T09:08:13;8.48;;;2.35;;
52124;SDS011;38119;52.710;6.398;2023-07-29T09:10:39;6.88;;;2.38;;
52124;SDS011;38119;52.710;6.398;2023-07-29T09:13:06;5.85;;;2.83;;
52124;SDS011;38119;52.710;6.398;2023-07-29T09:15:33;7.88;;;2.90;;
52124;SDS011;38119;52.710;6.398;2023-07-29T09:18:08;4.47;;;2.72;;
52124;SDS011;38119;52.710;6.398;2023-07-29T09:20:35;4.50;;;2.60;;
52124;SDS011;38119;52.710;6.398;2023-07-29T09:23:01;6.45;;;2.60;;
52124;SDS011;38119;52.710;6.398;2023-07-29T09:25:28;6.93;;;2.97;;
52124;SDS011;38119;52.710;6.398;2023-07-29T09:28:00;7.93;;;2.88;;
52124;SDS011;38119;52.710;6.398;2023-07-29T09:30:32;6.03;;;2.88;;
52124;SDS011;38119;52.710;6.398;2023-07-29T09:32:58;5.63;;;2.83;;
52124;SDS011;38119;52.710;6.398;2023-07-29T09:35:24;7.88;;;2.95;;
52124;SDS011;38119;52.710;6.398;2023-07-29T09:37:52;6.15;;;2.92;;
52124;SDS011;38119;52.710;6.398;2023-07-29T09:40:18;4.65;;;2.42;;
52124;SDS011;38119;52.710;6.398;2023-07-29T09:42:47;5.00;;;2.67;;
52124;SDS011;38119;52.710;6.398;2023-07-29T09:45:21;5.05;;;2.50;;
52124;SDS011;38119;52.710;6.398;2023-07-29T09:47:53;8.43;;;2.85;;
52124;SDS011;38119;52.710;6.398;2023-07-29T09:50:24;4.57;;;2.67;;
52124;SDS011;38119;52.710;6.398;2023-07-29T09:52:52;6.15;;;2.70;;
52124;SDS011;38119;52.710;6.398;2023-07-29T09:55:19;4.53;;;2.60;;
52124;SDS011;38119;52.710;6.398;2023-07-29T09:57:46;5.32;;;2.70;;
52124;SDS011;38119;52.710;6.398;2023-07-29T10:00:12;6.18;;;2.70;;
52124;SDS011;38119;52.710;6.398;2023-07-29T10:02:39;3.95;;;2.40;;
52124;SDS011;38119;52.710;6.398;2023-07-29T10:05:07;4.60;;;2.85;;
52124;SDS011;38119;52.710;6.398;2023-07-29T10:07:36;4.68;;;2.65;;
52124;SDS011;38119;52.710;6.398;2023-07-29T10:10:06;5.38;;;3.10;;
52124;SDS011;38119;52.710;6.398;2023-07-29T10:12:33;7.63;;;2.90;;
52124;SDS011;38119;52.710;6.398;2023-07-29T10:15:00;4.63;;;2.90;;
52124;SDS011;38119;52.710;6.398;2023-07-29T10:17:30;5.20;;;2.72;;
52124;SDS011;38119;52.710;6.398;2023-07-29T10:19:59;5.22;;;2.78;;
52124;SDS011;38119;52.710;6.398;2023-07-29T10:22:27;5.13;;;2.50;;
52124;SDS011;38119;52.710;6.398;2023-07-29T10:27:27;7.00;;;3.10;;
52124;SDS011;38119;52.710;6.398;2023-07-29T10:29:55;4.85;;;2.47;;
52124;SDS011;38119;52.710;6.398;2023-07-29T10:32:23;6.28;;;3.22;;
52124;SDS011;38119;52.710;6.398;2023-07-29T10:34:51;5.00;;;2.80;;
52124;SDS011;38119;52.710;6.398;2023-07-29T10:37:17;5.03;;;3.20;;
52124;SDS011;38119;52.710;6.398;2023-07-29T10:39:51;4.25;;;3.30;;
52124;SDS011;38119;52.710;6.398;2023-07-29T10:42:19;4.93;;;3.47;;
52124;SDS011;38119;52.710;6.398;2023-07-29T10:44:48;4.35;;;3.40;;
52124;SDS011;38119;52.710;6.398;2023-07-29T10:47:23;8.25;;;4.18;;
52124;SDS011;38119;52.710;6.398;2023-07-29T10:49:51;4.80;;;3.20;;
52124;SDS011;38119;52.710;6.398;2023-07-29T10:55:00;7.40;;;3.20;;
52124;SDS011;38119;52.710;6.398;2023-07-29T10:57:30;5.93;;;3.20;;
52124;SDS011;38119;52.710;6.398;2023-07-29T10:59:57;4.63;;;3.28;;
52124;SDS011;38119;52.710;6.398;2023-07-29T11:02:28;8.18;;;3.30;;
52124;SDS011;38119;52.710;6.398;2023-07-29T11:04:55;4.82;;;3.03;;
52124;SDS011;38119;52.710;6.398;2023-07-29T11:07:21;6.85;;;3.42;;
52124;SDS011;38119;52.710;6.398;2023-07-29T11:09:58;4.20;;;2.85;;
52124;SDS011;38119;52.710;6.398;2023-07-29T11:15:00;5.95;;;2.97;;
52124;SDS011;38119;52.710;6.398;2023-07-29T11:17:34;5.60;;;3.00;;
52124;SDS011;38119;52.710;6.398;2023-07-29T11:20:00;6.43;;;2.80;;
52124;SDS011;38119;52.710;6.398;2023-07-29T11:22:28;7.82;;;3.08;;
52124;SDS011;38119;52.710;6.398;2023-07-29T11:24:54;6.10;;;2.40;;
52124;SDS011;38119;52.710;6.398;2023-07-29T11:27:20;7.40;;;2.40;;
52124;SDS011;38119;52.710;6.398;2023-07-29T11:29:46;6.70;;;2.47;;
52124;SDS011;38119;52.710;6.398;2023-07-29T11:32:12;5.18;;;2.40;;
52124;SDS011;38119;52.710;6.398;2023-07-29T11:34:38;4.35;;;2.13;;
52124;SDS011;38119;52.710;6.398;2023-07-29T11:37:05;5.28;;;2.33;;
52124;SDS011;38119;52.710;6.398;2023-07-29T11:39:31;7.15;;;2.13;;
52124;SDS011;38119;52.710;6.398;2023-07-29T11:41:58;7.28;;;2.30;;
52124;SDS011;38119;52.710;6.398;2023-07-29T11:44:24;4.47;;;2.38;;
52124;SDS011;38119;52.710;6.398;2023-07-29T11:46:50;6.88;;;2.47;;
52124;SDS011;38119;52.710;6.398;2023-07-29T11:49:16;7.32;;;2.63;;
52124;SDS011;38119;52.710;6.398;2023-07-29T11:51:41;4.78;;;2.30;;
52124;SDS011;38119;52.710;6.398;2023-07-29T11:54:08;5.95;;;2.83;;
52124;SDS011;38119;52.710;6.398;2023-07-29T11:56:34;5.78;;;2.60;;
52124;SDS011;38119;52.710;6.398;2023-07-29T11:59:01;6.38;;;2.50;;
52124;SDS011;38119;52.710;6.398;2023-07-29T12:01:28;6.20;;;2.33;;
52124;SDS011;38119;52.710;6.398;2023-07-29T12:03:54;4.88;;;2.50;;
52124;SDS011;38119;52.710;6.398;2023-07-29T12:06:22;4.68;;;2.58;;
52124;SDS011;38119;52.710;6.398;2023-07-29T12:08:49;4.55;;;2.20;;
52124;SDS011;38119;52.710;6.398;2023-07-29T12:11:15;4.30;;;2.22;;
52124;SDS011;38119;52.710;6.398;2023-07-29T12:13:41;6.22;;;2.30;;
52124;SDS011;38119;52.710;6.398;2023-07-29T12:16:08;5.03;;;2.53;;
52124;SDS011;38119;52.710;6.398;2023-07-29T12:18:33;7.30;;;2.50;;
52124;SDS011;38119;52.710;6.398;2023-07-29T12:20:59;4.22;;;2.38;;
52124;SDS011;38119;52.710;6.398;2023-07-29T12:23:25;4.95;;;2.20;;
52124;SDS011;38119;52.710;6.398;2023-07-29T12:25:51;5.60;;;2.60;;
52124;SDS011;38119;52.710;6.398;2023-07-29T12:28:26;6.22;;;2.40;;
52124;SDS011;38119;52.710;6.398;2023-07-29T12:30:55;3.63;;;2.22;;
52124;SDS011;38119;52.710;6.398;2023-07-29T12:33:31;5.03;;;2.40;;
52124;SDS011;38119;52.710;6.398;2023-07-29T12:35:58;5.40;;;2.10;;
52124;SDS011;38119;52.710;6.398;2023-07-29T12:38:27;4.30;;;2.10;;
52124;SDS011;38119;52.710;6.398;2023-07-29T12:40:53;3.97;;;2.20;;
52124;SDS011;38119;52.710;6.398;2023-07-29T12:43:19;3.85;;;2.35;;
52124;SDS011;38119;52.710;6.398;2023-07-29T12:45:45;5.95;;;2.38;;
52124;SDS011;38119;52.710;6.398;2023-07-29T12:48:11;3.78;;;2.35;;
52124;SDS011;38119;52.710;6.398;2023-07-29T12:50:37;6.07;;;2.15;;
52124;SDS011;38119;52.710;6.398;2023-07-29T12:53:04;4.47;;;2.40;;
52124;SDS011;38119;52.710;6.398;2023-07-29T12:55:31;5.13;;;2.40;;
52124;SDS011;38119;52.710;6.398;2023-07-29T12:57:57;6.55;;;2.65;;
52124;SDS011;38119;52.710;6.398;2023-07-29T13:00:24;7.13;;;2.55;;
52124;SDS011;38119;52.710;6.398;2023-07-29T13:02:49;7.05;;;2.65;;
52124;SDS011;38119;52.710;6.398;2023-07-29T13:05:16;5.97;;;2.60;;
52124;SDS011;38119;52.710;6.398;2023-07-29T13:07:42;5.28;;;2.72;;
52124;SDS011;38119;52.710;6.398;2023-07-29T13:10:09;8.55;;;2.75;;
52124;SDS011;38119;52.710;6.398;2023-07-29T13:12:35;7.18;;;2.22;;
52124;SDS011;38119;52.710;6.398;2023-07-29T13:15:00;5.20;;;2.80;;
52124;SDS011;38119;52.710;6.398;2023-07-29T13:17:27;5.32;;;2.40;;
52124;SDS011;38119;52.710;6.398;2023-07-29T13:19:52;4.20;;;2.15;;
52124;SDS011;38119;52.710;6.398;2023-07-29T13:22:19;3.63;;;2.42;;
52124;SDS011;38119;52.710;6.398;2023-07-29T13:24:45;4.72;;;2.60;;
52124;SDS011;38119;52.710;6.398;2023-07-29T13:27:11;10.02;;;2.35;;
52124;SDS011;38119;52.710;6.398;2023-07-29T13:29:37;8.82;;;3.10;;
52124;SDS011;38119;52.710;6.398;2023-07-29T13:32:02;5.85;;;2.20;;
52124;SDS011;38119;52.710;6.398;2023-07-29T13:34:28;5.60;;;2.45;;
52124;SDS011;38119;52.710;6.398;2023-07-29T13:36:54;9.95;;;2.53;;
52124;SDS011;38119;52.710;6.398;2023-07-29T13:39:19;6.85;;;2.63;;
52124;SDS011;38119;52.710;6.398;2023-07-29T13:41:45;7.60;;;2.60;;
52124;SDS011;38119;52.710;6.398;2023-07-29T13:44:11;5.75;;;2.15;;
52124;SDS011;38119;52.710;6.398;2023-07-29T13:46:36;5.80;;;2.38;;
52124;SDS011;38119;52.710;6.398;2023-07-29T13:49:02;7.28;;;2.72;;
52124;SDS011;38119;52.710;6.398;2023-07-29T13:51:28;7.15;;;3.67;;
52124;SDS011;38119;52.710;6.398;2023-07-29T13:53:54;7.07;;;3.67;;
52124;SDS011;38119;52.710;6.398;2023-07-29T13:56:21;6.00;;;3.20;;
52124;SDS011;38119;52.710;6.398;2023-07-29T13:58:47;5.20;;;3.10;;
52124;SDS011;38119;52.710;6.398;2023-07-29T14:01:12;5.00;;;2.80;;
52124;SDS011;38119;52.710;6.398;2023-07-29T14:03:38;4.18;;;2.90;;
52124;SDS011;38119;52.710;6.398;2023-07-29T14:06:03;3.83;;;2.53;;
52124;SDS011;38119;52.710;6.398;2023-07-29T14:08:29;4.20;;;3.10;;
52124;SDS011;38119;52.710;6.398;2023-07-29T14:10:55;5.50;;;3.55;;
52124;SDS011;38119;52.710;6.398;2023-07-29T14:13:21;5.32;;;3.58;;
52124;SDS011;38119;52.710;6.398;2023-07-29T14:15:46;4.15;;;3.50;;
52124;SDS011;38119;52.710;6.398;2023-07-29T14:18:12;6.72;;;3.95;;
52124;SDS011;38119;52.710;6.398;2023-07-29T14:20:38;5.15;;;3.70;;
52124;SDS011;38119;52.710;6.398;2023-07-29T14:23:04;6.05;;;4.03;;
52124;SDS011;38119;52.710;6.398;2023-07-29T14:25:29;7.68;;;4.45;;
52124;SDS011;38119;52.710;6.398;2023-07-29T14:27:55;7.55;;;4.75;;
52124;SDS011;38119;52.710;6.398;2023-07-29T14:30:20;14.93;;;6.50;;
52124;SDS011;38119;52.710;6.398;2023-07-29T14:32:46;8.13;;;5.40;;
52124;SDS011;38119;52.710;6.398;2023-07-29T14:35:12;11.07;;;5.35;;
52124;SDS011;38119;52.710;6.398;2023-07-29T14:37:37;7.47;;;5.13;;
52124;SDS011;38119;52.710;6.398;2023-07-29T14:40:04;8.45;;;5.00;;
52124;SDS011;38119;52.710;6.398;2023-07-29T14:42:30;7.03;;;4.97;;
52124;SDS011;38119;52.710;6.398;2023-07-29T14:44:55;6.00;;;3.50;;
52124;SDS011;38119;52.710;6.398;2023-07-29T14:47:21;4.95;;;3.10;;
52124;SDS011;38119;52.710;6.398;2023-07-29T14:49:47;3.40;;;2.80;;
52124;SDS011;38119;52.710;6.398;2023-07-29T14:52:12;3.85;;;2.67;;
52124;SDS011;38119;52.710;6.398;2023-07-29T14:54:38;3.30;;;2.58;;